CYCX

CFB Gagetown Heliport

Gagetown, New Brunswick, Canada
METAR CYCX 201500Z 08005KT 040V100 15SM FEW003 BKN053 OVC094 04/02 A3030 RMK SF1SC6AC1 DA-1473FT SLP263
Observed Flight Rules
Feb-20 @ 15:00 UTC (22 hours ago) Visual Flight Rules
Wind Visibility Clouds
80° at 5 knots 15 miles
  • Few at 300' AGL
  • Broken at 5,300' AGL
  • Overcast at 9,400' AGL
Temperatures Readings
Current 4°C / 39°F
Dewpoint 2°C / 36°F
Humidity 87%
Altimeter 30.3" Hg
Pressure 1026.3 hPa
Elevation 51
METAR CYCX 201500Z 08005KT 040V100 15SM FEW003 BKN053 OVC094 04/02 A3030 RMK SF1SC6AC1 DA-1473FT SLP263
Observed Flight Rules
Feb-20 @ 15:00 UTC
(22 hours ago)
VFR
Wind Visibility
80° at 5 knots 15 miles
Clouds
  • Few at 300' AGL
  • Broken at 5,300' AGL
  • Overcast at 9,400' AGL
Temperature Dewpoint
4°C / 39°F 2°C / 36°F
Humidity Altimeter Pressure
87% 30.3" Hg 1026.3 hPa